Latest Coastal Weather Observations for Holmes Reef

IDQ60701

Issued at 9:51 pm EST Tuesday 24 May 2016 (issued every 10 minutes, with the page automatically refreshed every 10 minutes)

About coastal observations | Map of coastal stations | Coastal observations for QLD | Marine services | Other Formats
Station Details ID: 200732 Name: HOLMES REEF Lat: -16.47 Lon: 147.87 Height: 1.9 m
Data from the previous 72 hours. | See also: Recent months at Holmes Reef
Date/Time
EST
Temp

°C
Wind Pressure Rain
since 9am
mm
Weather Cloud Vis
km
Sea
Height
m
Swell
Dir
 
Speed
knots
Gust
knots
hPa Trend Height
m
Period
s
Dir
24/09:30pm 26.9 SE 17 19 1015.8 - - - - - - - - -
24/09:15pm 26.7 SE 17 - 1015.5 - - - - - - - - -
24/09:00pm 26.9 SE 18 20 1015.5 - - - - - - - - -
24/08:30pm 27.1 ESE 17 19 1015.2 - - - - - - - - -
24/08:15pm 27.0 SE 17 - 1014.8 - - - - - - - - -
24/08:00pm 26.8 ESE 17 19 1015.1 - - - - - - - - -
24/07:30pm 27.1 SE 16 19 1014.7 - - - - - - - - -
24/07:15pm 26.8 SE 16 - 1014.3 - - - - - - - - -
24/07:00pm 26.7 SE 16 18 1014.5 - - - - - - - - -
24/06:30pm 26.9 ESE 16 18 1014.2 - - - - - - - - -
24/06:15pm 26.9 SE 16 - 1013.9 - - - - - - - - -
24/06:00pm 26.7 SE 16 18 1013.9 - - - - - - - - -
24/05:30pm 26.6 SE 16 19 1013.8 - - - - - - - - -
24/05:15pm 26.9 SE 16 - 1013.4 - - - - - - - - -
24/05:00pm 26.8 SE 16 19 1013.5 - - - - - - - - -
24/04:30pm 26.7 SE 16 18 1013.3 - - - - - - - - -
24/04:15pm 26.8 SE 15 - 1013.1 - - - - - - - - -
24/04:00pm 26.9 SE 16 19 1013.3 - - - - - - - - -
24/03:30pm 26.9 SE 16 19 1013.3 - - - - - - - - -
24/03:15pm 26.7 SE 16 - 1012.9 - - - - - - - - -
24/03:00pm 26.8 SE 17 19 1013.0 - - - - - - - - -
24/02:30pm 26.6 SE 17 19 1013.1 - - - - - - - - -
24/02:15pm 26.4 SE 17 - 1012.8 - - - - - - - - -
24/02:00pm 27.0 SE 16 19 1013.3 - - - - - - - - -
24/01:30pm 26.8 SE 15 17 1013.7 - - - - - - - - -
24/01:15pm 26.9 SE 15 - 1013.7 - - - - - - - - -
24/01:00pm 26.8 ESE 15 17 1014.2 - - - - - - - - -
24/12:30pm 27.0 SE 15 17 1014.7 - - - - - - - - -
24/12:15pm 27.1 SE 14 - 1014.6 - - - - - - - - -
24/12:00pm 27.2 SE 16 17 1015.0 - - - - - - - - -
24/11:30am 27.0 SE 16 17 1015.1 - - - - - - - - -
24/11:15am 27.1 ESE 16 - 1014.9 - - - - - - - - -
24/11:00am 27.0 ESE 17 20 1015.5 - - - - - - - - -
24/10:30am 26.9 ESE 16 19 1015.7 - - - - - - - - -
24/10:15am 26.8 SE 18 - 1015.4 - - - - - - - - -
24/10:00am 26.9 ESE 17 21 1015.8 - - - - - - - - -
24/09:30am 26.7 ESE 19 22 1015.6 - - - - - - - - -
24/09:15am 26.6 ESE 19 - 1015.2 - - - - - - - - -
24/09:00am 26.9 ESE 19 21 1015.5 - - - - - - - - -
24/08:30am 26.5 SE 20 23 1015.4 - - - - - - - - -
24/08:15am 26.5 SE 20 - 1015.0 - - - - - - - - -
24/08:00am 26.4 SE 20 23 1015.0 - - - - - - - - -
24/07:30am 26.6 SE 20 23 1014.7 - - - - - - - - -
24/07:15am 26.3 SE 21 - 1014.2 - - - - - - - - -
24/07:00am 26.3 SE 22 27 1014.1 - - - - - - - - -
24/06:30am 25.9 SE 21 24 1014.1 - - - - - - - - -
24/06:15am 25.9 SE 21 - 1013.7 - - - - - - - - -
24/06:00am 25.9 SE 23 27 1013.9 - - - - - - - - -
24/05:30am 25.6 SE 23 26 1013.6 - - - - - - - - -
24/05:15am 25.5 ESE 23 - 1013.2 - - - - - - - - -
24/05:00am 25.2 SE 24 28 1013.6 - - - - - - - - -
24/04:30am 25.4 SE 22 25 1013.5 - - - - - - - - -
24/04:15am 25.2 SE 23 - 1013.2 - - - - - - - - -
24/04:00am 25.4 SE 23 27 1013.5 - - - - - - - - -
24/03:30am 25.5 ESE 21 24 1013.6 - - - - - - - - -
24/03:15am 25.6 SE 23 - 1013.2 - - - - - - - - -
24/03:00am 25.5 ESE 24 27 1013.6 - - - - - - - - -
24/02:30am 25.6 SE 22 26 1013.6 - - - - - - - - -
24/02:15am 25.4 ESE 23 - 1013.3 - - - - - - - - -
24/02:00am 25.6 ESE 23 27 1013.6 - - - - - - - - -
24/01:30am 26.1 ESE 21 24 1014.2 - - - - - - - - -
24/01:15am 26.2 ESE 19 - 1014.2 - - - - - - - - -
24/01:00am 26.1 ESE 20 22 1014.6 - - - - - - - - -
24/12:30am 26.3 ESE 20 22 1014.8 - - - - - - - - -
24/12:15am 26.2 ESE 18 - 1014.7 - - - - - - - - -
24/12:00am 26.2 ESE 17 20 1015.2 - - - - - - - - -
 
Date/Time
EST
Temp

°C
Wind Pressure Rain
since 9am
mm
Weather Cloud Vis
km
Sea
Height
m
Swell
Dir
 
Speed
knots
Gust
knots
hPa Trend Height
m
Period
s
Dir
23/11:30pm 26.6 ESE 17 19 1015.6 - - - - - - - - -
23/11:15pm 26.4 ESE 17 - 1015.2 - - - - - - - - -
23/11:00pm 26.4 ESE 15 17 1015.5 - - - - - - - - -
23/10:30pm 26.4 ESE 17 19 1015.7 - - - - - - - - -
23/10:15pm 26.1 ESE 17 - 1015.5 - - - - - - - - -
23/10:00pm 26.1 SE 17 20 1015.9 - - - - - - - - -
23/09:30pm 26.6 ESE 19 22 1015.7 - - - - - - - - -
23/09:15pm 26.5 ESE 19 - 1015.6 - - - - - - - - -
23/09:00pm 26.6 SE 16 19 1016.0 - - - - - - - - -
23/08:30pm 26.5 ESE 19 21 1015.4 - - - - - - - - -
23/08:15pm 26.5 ESE 20 - 1014.9 - - - - - - - - -
23/08:00pm 26.6 SE 21 23 1014.9 - - - - - - - - -
23/07:30pm 26.6 SE 19 22 1014.7 - - - - - - - - -
23/07:15pm 26.8 ESE 18 - 1014.4 - - - - - - - - -
23/07:00pm 26.8 SE 17 20 1014.6 - - - - - - - - -
23/06:30pm 26.6 ESE 18 20 1014.3 - - - - - - - - -
23/06:15pm 26.9 ESE 17 - 1013.9 - - - - - - - - -
23/06:00pm 26.7 ESE 17 20 1014.1 - - - - - - - - -
23/05:30pm 26.9 ESE 18 21 1013.7 - - - - - - - - -
23/05:15pm 26.8 ESE 19 - 1013.3 - - - - - - - - -
23/05:00pm 26.8 ESE 18 21 1013.6 - - - - - - - - -
23/04:30pm 27.1 ESE 19 21 1013.5 - - - - - - - - -
23/04:15pm 27.2 SE 18 - 1013.1 - - - - - - - - -
23/04:00pm 27.1 SE 17 21 1013.5 - - - - - - - - -
23/03:30pm 27.1 SE 17 19 1013.7 - - - - - - - - -
23/03:15pm 27.1 ESE 16 - 1013.3 - - - - - - - - -
23/03:00pm 26.9 ESE 16 19 1013.6 - - - - - - - - -
23/02:30pm 27.0 ESE 18 21 1013.5 - - - - - - - - -
23/02:15pm 27.1 ESE 18 - 1013.2 - - - - - - - - -
23/02:00pm 27.0 ESE 18 21 1013.4 - - - - - - - - -
23/01:30pm 27.0 ESE 19 21 1013.5 - - - - - - - - -
23/01:15pm 27.2 ESE 18 - 1013.4 - - - - - - - - -
23/01:00pm 27.1 ESE 20 23 1013.8 - - - - - - - - -
23/12:51pm 26.9 ESE 20 23 1014.0 - - - - - - - - -
23/12:30pm 26.3 SSE 17 20 1014.4 - - - - - - - - -
23/12:15pm 26.6 SE 17 - 1014.3 - - - - - - - - -
23/12:00pm 27.2 ESE 16 18 1014.7 - - - - - - - - -
23/11:30am 27.3 ESE 19 21 1014.6 - - - - - - - - -
23/11:15am 27.3 ESE 17 - 1014.8 - - - - - - - - -
23/11:00am 27.3 ESE 18 21 1015.2 - - - - - - - - -
23/10:30am 27.2 ESE 18 21 1015.4 - - - - - - - - -
23/10:15am 27.2 ESE 18 - 1014.9 - - - - - - - - -
23/10:00am 27.1 ESE 20 23 1015.2 - - - - - - - - -
23/09:30am 27.4 ESE 20 23 1015.3 - - - - - - - - -
23/09:15am 27.1 ESE 20 - 1014.8 - - - - - - - - -
23/09:00am 27.3 ESE 20 22 1015.2 - - - - - - - - -
23/08:30am 27.2 ESE 20 23 1015.0 - - - - - - - - -
23/08:15am 27.0 ESE 21 - 1014.6 - - - - - - - - -
23/08:00am 27.1 ESE 20 24 1014.8 - - - - - - - - -
23/07:30am 26.9 ESE 22 24 1014.1 - - - - - - - - -
23/07:15am 26.8 ESE 20 - 1014.2 - - - - - - - - -
23/07:00am 27.0 ESE 21 24 1014.5 - - - - - - - - -
23/06:30am 27.0 ESE 22 25 1014.2 - - - - - - - - -
23/06:15am 27.1 ESE 22 - 1013.9 - - - - - - - - -
23/06:00am 27.0 ESE 21 24 1014.2 - - - - - - - - -
23/05:30am 26.8 ESE 22 25 1013.8 - - - - - - - - -
23/05:15am 26.9 ESE 22 - 1013.2 - - - - - - - - -
23/05:00am 26.8 ESE 22 25 1013.3 - - - - - - - - -
23/04:30am 26.9 ESE 21 25 1013.2 - - - - - - - - -
23/04:15am 26.9 ESE 23 - 1012.7 - - - - - - - - -
23/04:00am 26.7 ESE 23 27 1012.9 - - - - - - - - -
23/03:30am 26.0 ESE 16 24 1012.9 - - - - - - - - -
23/03:15am 25.5 ESE 21 - 1012.9 - - - - - - - - -
23/03:00am 26.7 ESE 21 25 1013.0 - - - - - - - - -
23/02:30am 26.7 ESE 20 24 1013.4 - - - - - - - - -
23/02:15am 27.3 ESE 17 - 1013.4 - - - - - - - - -
23/02:00am 27.0 ESE 17 20 1014.1 - - - - - - - - -
23/01:30am 27.1 ESE 19 22 1013.9 - - - - - - - - -
23/01:15am 27.3 ESE 19 - 1013.7 - - - - - - - - -
23/01:00am 27.2 ESE 21 25 1014.0 - - - - - - - - -
23/12:30am 27.2 ESE 22 25 1014.2 - - - - - - - - -
23/12:15am 27.2 ESE 21 - 1014.2 - - - - - - - - -
23/12:00am 27.2 ESE 23 26 1014.4 - - - - - - - - -
 
Date/Time
EST
Temp

°C
Wind Pressure Rain
since 9am
mm
Weather Cloud Vis
km
Sea
Height
m
Swell
Dir
 
Speed
knots
Gust
knots
hPa Trend Height
m
Period
s
Dir
22/11:30pm 27.4 E 22 25 1014.8 - - - - - - - - -
22/11:15pm 27.3 E 20 - 1014.7 - - - - - - - - -
22/11:00pm 27.5 E 21 25 1015.0 - - - - - - - - -
22/10:30pm 27.2 E 20 23 1015.5 - - - - - - - - -
22/10:15pm 27.2 E 22 - 1015.0 - - - - - - - - -
22/10:00pm 27.3 E 22 26 1015.1 - - - - - - - - -
22/09:30pm 27.2 E 22 27 1015.2 - - - - - - - - -
22/09:15pm 27.4 E 23 - 1014.9 - - - - - - - - -
22/09:00pm 27.5 E 23 26 1015.2 - - - - - - - - -
22/08:30pm 27.2 ESE 24 27 1015.4 - - - - - - - - -
22/08:15pm 27.2 ESE 22 - 1015.1 - - - - - - - - -
22/08:00pm 27.4 ESE 22 25 1015.4 - - - - - - - - -
22/07:30pm 27.2 ESE 22 25 1015.2 - - - - - - - - -
22/07:15pm 27.1 ESE 21 - 1014.7 - - - - - - - - -
22/07:00pm 27.3 ESE 21 24 1014.8 - - - - - - - - -
22/06:30pm 27.5 ESE 21 24 1014.5 - - - - - - - - -
22/06:15pm 27.4 ESE 20 - 1014.2 - - - - - - - - -
22/06:00pm 27.4 ESE 19 22 1014.6 - - - - - - - - -
22/05:30pm 27.4 E 20 23 1014.3 - - - - - - - - -
22/05:15pm 27.2 E 20 - 1013.9 - - - - - - - - -
22/05:00pm 27.3 ESE 21 23 1014.1 - - - - - - - - -
22/04:30pm 27.4 ESE 23 27 1013.9 - - - - - - - - -
22/04:15pm 27.3 ESE 22 - 1013.4 - - - - - - - - -
22/04:00pm 27.2 ESE 22 26 1013.5 - - - - - - - - -
22/03:30pm 27.0 ESE 21 25 1013.7 - - - - - - - - -
22/03:15pm 27.1 ESE 22 - 1013.5 - - - - - - - - -
22/03:00pm 27.2 ESE 20 24 1013.9 - - - - - - - - -
22/02:30pm 26.8 ESE 22 25 1014.1 - - - - - - - - -
22/02:15pm 26.7 ESE 21 - 1013.8 - - - - - - - - -
22/02:00pm 27.1 ESE 21 25 1014.3 - - - - - - - - -
22/01:30pm 27.3 ESE 23 25 1014.2 - - - - - - - - -
22/01:15pm 27.2 ESE 23 - 1014.1 - - - - - - - - -
22/01:00pm 27.2 ESE 23 26 1014.5 - - - - - - - - -
22/12:30pm 26.8 ESE 22 26 1015.0 - - - - - - - - -
22/12:15pm 26.7 ESE 23 - 1015.0 - - - - - - - - -
22/12:00pm 26.3 ESE 22 25 1015.7 - - - - - - - - -
22/11:30am 26.3 ESE 17 22 1016.3 - - - - - - - - -
22/11:15am 26.1 ESE 16 - 1016.4 - - - - - - - - -
22/11:00am 26.0 ESE 18 21 1016.9 - - - - - - - - -
22/10:30am 25.7 ESE 19 24 1016.9 - - - - - - - - -
22/10:15am 26.2 ESE 20 - 1016.6 - - - - - - - - -
22/10:00am 26.3 ESE 20 22 1016.9 - - - - - - - - -
22/09:30am 26.0 ESE 19 22 1016.8 - - - - - - - - -
22/09:15am 24.7 ESE 23 - 1016.3 - - - - - - - - -
22/09:06am 26.2 ESE 20 30 1016.5 - - - - - - - - -
22/09:00am 26.7 ESE 19 22 1016.5 - - - - - - - - -
22/08:30am 27.1 ESE 22 29 1016.5 - - - - - - - - -
22/08:15am 27.4 ESE 21 - 1016.0 - - - - - - - - -
22/08:00am 27.5 ESE 23 26 1016.0 - - - - - - - - -
22/07:30am 27.4 ESE 20 25 1015.5 - - - - - - - - -
22/07:15am 27.2 ESE 21 - 1015.1 - - - - - - - - -
22/07:00am 27.0 ESE 22 26 1015.1 - - - - - - - - -
22/06:30am 27.3 E 22 26 1014.8 - - - - - - - - -
22/06:15am 27.0 ESE 21 - 1014.2 - - - - - - - - -
22/06:00am 27.3 E 21 26 1014.5 - - - - - - - - -
22/05:30am 27.5 E 22 25 1014.0 - - - - - - - - -
22/05:15am 27.4 E 23 - 1013.4 - - - - - - - - -
22/05:00am 27.5 E 23 27 1013.6 - - - - - - - - -
22/04:30am 27.2 E 22 27 1013.3 - - - - - - - - -
22/04:15am 27.3 E 22 - 1013.3 - - - - - - - - -
22/04:00am 27.2 E 23 27 1013.5 - - - - - - - - -
22/03:30am 27.2 E 22 25 1013.2 - - - - - - - - -
22/03:15am 27.2 ESE 21 - 1012.9 - - - - - - - - -
22/03:00am 27.2 E 22 26 1012.9 - - - - - - - - -
22/02:30am 27.6 E 23 26 1013.4 - - - - - - - - -
22/02:15am 27.4 E 23 - 1013.3 - - - - - - - - -
22/02:00am 27.6 E 21 25 1013.8 - - - - - - - - -
22/01:30am 27.6 E 22 27 1014.0 - - - - - - - - -
22/01:15am 27.5 E 23 - 1013.7 - - - - - - - - -
22/01:00am 27.3 E 24 28 1014.2 - - - - - - - - -
22/12:30am 27.4 E 23 26 1014.5 - - - - - - - - -
22/12:15am 27.5 E 22 - 1014.1 - - - - - - - - -
22/12:00am 27.4 E 23 27 1014.6 - - - - - - - - -
 
Date/Time
EST
Temp

°C
Wind Pressure Rain
since 9am
mm
Weather Cloud Vis
km
Sea
Height
m
Swell
Dir
 
Speed
knots
Gust
knots
hPa Trend Height
m
Period
s
Dir
21/11:30pm 27.4 E 23 27 1014.7 - - - - - - - - -
21/11:15pm 27.5 E 23 - 1014.4 - - - - - - - - -
21/11:00pm 27.6 E 23 27 1014.8 - - - - - - - - -
21/10:30pm 27.5 ESE 22 25 1015.0 - - - - - - - - -
21/10:15pm 27.4 E 23 - 1014.7 - - - - - - - - -
21/10:00pm 27.3 E 22 27 1015.2 - - - - - - - - -

Other Formats:

Comma delimited format used in spreadsheet applications
http://www.bom.gov.au/fwo/IDQ60701/IDQ60701.94289.axf

JavaScript Object Notation format (JSON) in row-major order
http://www.bom.gov.au/fwo/IDQ60701/IDQ60701.94289.json